TAF Text Data
IDs:
Format:
Raw Decoded Include METAR

Data at: 1438 UTC 15 Oct 2018

KEWN 151123Z 1512/1612 VRB03KT P6SM SCT025 BKN040
  FM151500 19008KT P6SM BKN040
  FM160000 21003KT P6SM SCT080
  FM160900 23003KT P6SM SCT005 BKN025